sensor_id;sensor_type;location;lat;lon;timestamp;P1;durP1;ratioP1;P2;durP2;ratioP2
59504;SDS011;45321;53.200;5.814;2023-02-26T00:01:18;9.52;;;1.35;;
59504;SDS011;45321;53.200;5.814;2023-02-26T00:03:49;6.63;;;1.40;;
59504;SDS011;45321;53.200;5.814;2023-02-26T00:06:16;8.93;;;1.77;;
59504;SDS011;45321;53.200;5.814;2023-02-26T00:08:43;9.63;;;1.60;;
59504;SDS011;45321;53.200;5.814;2023-02-26T00:11:09;5.57;;;1.30;;
59504;SDS011;45321;53.200;5.814;2023-02-26T00:13:36;11.90;;;1.75;;
59504;SDS011;45321;53.200;5.814;2023-02-26T00:16:04;5.57;;;1.33;;
59504;SDS011;45321;53.200;5.814;2023-02-26T00:18:51;6.10;;;1.05;;
59504;SDS011;45321;53.200;5.814;2023-02-26T00:21:19;4.55;;;0.90;;
59504;SDS011;45321;53.200;5.814;2023-02-26T00:23:46;5.75;;;0.90;;
59504;SDS011;45321;53.200;5.814;2023-02-26T00:26:12;4.82;;;1.10;;
59504;SDS011;45321;53.200;5.814;2023-02-26T00:28:38;6.15;;;1.40;;
59504;SDS011;45321;53.200;5.814;2023-02-26T00:31:04;8.90;;;1.10;;
59504;SDS011;45321;53.200;5.814;2023-02-26T00:33:30;8.73;;;1.95;;
59504;SDS011;45321;53.200;5.814;2023-02-26T00:36:00;3.80;;;0.77;;
59504;SDS011;45321;53.200;5.814;2023-02-26T00:39:00;5.38;;;1.42;;
59504;SDS011;45321;53.200;5.814;2023-02-26T00:41:45;6.47;;;1.00;;
59504;SDS011;45321;53.200;5.814;2023-02-26T00:44:11;8.70;;;1.30;;
59504;SDS011;45321;53.200;5.814;2023-02-26T00:46:43;11.35;;;1.23;;
59504;SDS011;45321;53.200;5.814;2023-02-26T00:49:17;6.88;;;1.17;;
59504;SDS011;45321;53.200;5.814;2023-02-26T00:52:04;6.40;;;1.20;;
59504;SDS011;45321;53.200;5.814;2023-02-26T00:54:34;5.80;;;1.33;;
59504;SDS011;45321;53.200;5.814;2023-02-26T00:57:00;7.15;;;1.15;;
59504;SDS011;45321;53.200;5.814;2023-02-26T00:59:28;4.93;;;1.08;;
59504;SDS011;45321;53.200;5.814;2023-02-26T01:01:54;7.65;;;1.52;;
59504;SDS011;45321;53.200;5.814;2023-02-26T01:04:21;7.53;;;1.08;;
59504;SDS011;45321;53.200;5.814;2023-02-26T01:06:49;9.10;;;1.85;;
59504;SDS011;45321;53.200;5.814;2023-02-26T01:09:27;8.20;;;1.27;;
59504;SDS011;45321;53.200;5.814;2023-02-26T01:11:58;4.25;;;1.10;;
59504;SDS011;45321;53.200;5.814;2023-02-26T01:14:28;5.22;;;1.10;;
59504;SDS011;45321;53.200;5.814;2023-02-26T01:16:58;4.80;;;0.90;;
59504;SDS011;45321;53.200;5.814;2023-02-26T01:19:43;4.03;;;1.35;;
59504;SDS011;45321;53.200;5.814;2023-02-26T01:25:03;6.40;;;1.00;;
59504;SDS011;45321;53.200;5.814;2023-02-26T01:27:31;5.10;;;1.10;;
59504;SDS011;45321;53.200;5.814;2023-02-26T01:29:57;6.57;;;1.33;;
59504;SDS011;45321;53.200;5.814;2023-02-26T01:32:33;4.82;;;1.27;;
59504;SDS011;45321;53.200;5.814;2023-02-26T01:35:16;7.88;;;1.45;;
59504;SDS011;45321;53.200;5.814;2023-02-26T01:46:21;4.50;;;1.08;;
59504;SDS011;45321;53.200;5.814;2023-02-26T01:48:53;4.28;;;1.30;;
59504;SDS011;45321;53.200;5.814;2023-02-26T01:51:39;4.15;;;0.98;;
59504;SDS011;45321;53.200;5.814;2023-02-26T01:54:13;5.45;;;1.17;;
59504;SDS011;45321;53.200;5.814;2023-02-26T01:56:41;7.38;;;2.10;;
59504;SDS011;45321;53.200;5.814;2023-02-26T01:59:09;3.00;;;1.05;;
59504;SDS011;45321;53.200;5.814;2023-02-26T02:01:38;4.65;;;1.10;;
59504;SDS011;45321;53.200;5.814;2023-02-26T02:04:09;8.45;;;1.10;;
59504;SDS011;45321;53.200;5.814;2023-02-26T02:06:38;2.88;;;1.10;;
59504;SDS011;45321;53.200;5.814;2023-02-26T02:09:05;2.70;;;0.80;;
59504;SDS011;45321;53.200;5.814;2023-02-26T02:11:32;5.18;;;0.90;;
59504;SDS011;45321;53.200;5.814;2023-02-26T02:14:06;5.45;;;1.35;;
59504;SDS011;45321;53.200;5.814;2023-02-26T02:19:27;3.85;;;1.05;;
59504;SDS011;45321;53.200;5.814;2023-02-26T02:22:18;5.60;;;1.67;;
59504;SDS011;45321;53.200;5.814;2023-02-26T02:25:11;4.28;;;0.90;;
59504;SDS011;45321;53.200;5.814;2023-02-26T02:31:04;5.75;;;1.10;;
59504;SDS011;45321;53.200;5.814;2023-02-26T02:33:50;9.52;;;1.00;;
59504;SDS011;45321;53.200;5.814;2023-02-26T02:39:27;3.85;;;1.02;;
59504;SDS011;45321;53.200;5.814;2023-02-26T02:44:57;7.13;;;1.30;;
59504;SDS011;45321;53.200;5.814;2023-02-26T02:47:32;4.38;;;1.02;;
59504;SDS011;45321;53.200;5.814;2023-02-26T02:50:13;6.07;;;1.00;;
59504;SDS011;45321;53.200;5.814;2023-02-26T02:52:51;3.83;;;1.05;;
59504;SDS011;45321;53.200;5.814;2023-02-26T02:55:29;4.80;;;1.08;;
59504;SDS011;45321;53.200;5.814;2023-02-26T02:58:00;10.35;;;1.63;;
59504;SDS011;45321;53.200;5.814;2023-02-26T03:00:30;6.60;;;1.38;;
59504;SDS011;45321;53.200;5.814;2023-02-26T03:03:09;4.55;;;1.15;;
59504;SDS011;45321;53.200;5.814;2023-02-26T03:05:43;5.32;;;1.10;;
59504;SDS011;45321;53.200;5.814;2023-02-26T03:08:10;7.38;;;1.50;;
59504;SDS011;45321;53.200;5.814;2023-02-26T03:10:38;4.30;;;1.25;;
59504;SDS011;45321;53.200;5.814;2023-02-26T03:13:05;4.72;;;0.75;;
59504;SDS011;45321;53.200;5.814;2023-02-26T03:15:36;6.65;;;1.38;;
59504;SDS011;45321;53.200;5.814;2023-02-26T03:18:10;8.75;;;1.38;;
59504;SDS011;45321;53.200;5.814;2023-02-26T03:20:46;8.00;;;1.35;;
59504;SDS011;45321;53.200;5.814;2023-02-26T03:23:47;6.65;;;1.50;;
59504;SDS011;45321;53.200;5.814;2023-02-26T03:26:30;7.68;;;1.60;;
59504;SDS011;45321;53.200;5.814;2023-02-26T03:29:07;6.32;;;1.08;;
59504;SDS011;45321;53.200;5.814;2023-02-26T03:31:56;4.80;;;0.80;;
59504;SDS011;45321;53.200;5.814;2023-02-26T03:34:36;7.00;;;1.10;;
59504;SDS011;45321;53.200;5.814;2023-02-26T03:37:13;3.67;;;0.73;;
59504;SDS011;45321;53.200;5.814;2023-02-26T03:39:51;4.82;;;1.02;;
59504;SDS011;45321;53.200;5.814;2023-02-26T03:44:59;6.40;;;1.27;;
59504;SDS011;45321;53.200;5.814;2023-02-26T03:47:31;5.93;;;1.50;;
59504;SDS011;45321;53.200;5.814;2023-02-26T03:53:05;7.65;;;1.20;;
59504;SDS011;45321;53.200;5.814;2023-02-26T03:55:49;5.30;;;1.10;;
59504;SDS011;45321;53.200;5.814;2023-02-26T03:58:20;3.55;;;0.80;;
59504;SDS011;45321;53.200;5.814;2023-02-26T04:00:46;9.48;;;1.30;;
59504;SDS011;45321;53.200;5.814;2023-02-26T04:03:27;5.18;;;0.88;;
59504;SDS011;45321;53.200;5.814;2023-02-26T04:05:57;6.30;;;1.25;;
59504;SDS011;45321;53.200;5.814;2023-02-26T04:08:24;13.05;;;1.42;;
59504;SDS011;45321;53.200;5.814;2023-02-26T04:13:17;3.90;;;0.85;;
59504;SDS011;45321;53.200;5.814;2023-02-26T04:15:43;7.25;;;1.55;;
59504;SDS011;45321;53.200;5.814;2023-02-26T04:18:09;5.78;;;0.90;;
59504;SDS011;45321;53.200;5.814;2023-02-26T04:20:34;6.68;;;0.95;;
59504;SDS011;45321;53.200;5.814;2023-02-26T04:23:00;9.77;;;1.30;;
59504;SDS011;45321;53.200;5.814;2023-02-26T04:25:26;5.22;;;1.02;;
59504;SDS011;45321;53.200;5.814;2023-02-26T04:27:51;6.25;;;1.02;;
59504;SDS011;45321;53.200;5.814;2023-02-26T04:30:17;7.93;;;1.20;;
59504;SDS011;45321;53.200;5.814;2023-02-26T04:32:43;8.00;;;1.25;;
59504;SDS011;45321;53.200;5.814;2023-02-26T04:35:09;8.50;;;1.15;;
59504;SDS011;45321;53.200;5.814;2023-02-26T04:37:34;5.53;;;1.10;;
59504;SDS011;45321;53.200;5.814;2023-02-26T04:40:00;5.30;;;1.23;;
59504;SDS011;45321;53.200;5.814;2023-02-26T04:42:26;5.38;;;1.00;;
59504;SDS011;45321;53.200;5.814;2023-02-26T04:44:52;4.75;;;1.05;;
59504;SDS011;45321;53.200;5.814;2023-02-26T04:47:17;7.60;;;1.70;;
59504;SDS011;45321;53.200;5.814;2023-02-26T04:49:43;6.50;;;1.00;;
59504;SDS011;45321;53.200;5.814;2023-02-26T04:52:09;4.13;;;0.90;;
59504;SDS011;45321;53.200;5.814;2023-02-26T04:54:35;8.10;;;1.20;;
59504;SDS011;45321;53.200;5.814;2023-02-26T04:57:01;3.97;;;0.77;;
59504;SDS011;45321;53.200;5.814;2023-02-26T04:59:28;8.00;;;0.98;;
59504;SDS011;45321;53.200;5.814;2023-02-26T05:01:53;10.43;;;1.10;;
59504;SDS011;45321;53.200;5.814;2023-02-26T05:04:19;7.28;;;1.20;;
59504;SDS011;45321;53.200;5.814;2023-02-26T05:06:45;6.38;;;1.00;;
59504;SDS011;45321;53.200;5.814;2023-02-26T05:09:11;4.38;;;0.98;;
59504;SDS011;45321;53.200;5.814;2023-02-26T05:11:37;2.97;;;1.02;;
59504;SDS011;45321;53.200;5.814;2023-02-26T05:14:02;5.65;;;1.17;;
59504;SDS011;45321;53.200;5.814;2023-02-26T05:16:28;10.73;;;1.33;;
59504;SDS011;45321;53.200;5.814;2023-02-26T05:18:54;8.98;;;1.98;;
59504;SDS011;45321;53.200;5.814;2023-02-26T05:21:19;5.75;;;1.25;;
59504;SDS011;45321;53.200;5.814;2023-02-26T05:23:46;4.63;;;0.90;;
59504;SDS011;45321;53.200;5.814;2023-02-26T05:26:11;6.53;;;1.27;;
59504;SDS011;45321;53.200;5.814;2023-02-26T05:28:37;1.85;;;0.70;;
59504;SDS011;45321;53.200;5.814;2023-02-26T05:31:03;4.78;;;1.20;;
59504;SDS011;45321;53.200;5.814;2023-02-26T05:33:29;7.30;;;1.10;;
59504;SDS011;45321;53.200;5.814;2023-02-26T05:35:54;4.22;;;1.05;;
59504;SDS011;45321;53.200;5.814;2023-02-26T05:38:21;5.97;;;1.13;;
59504;SDS011;45321;53.200;5.814;2023-02-26T05:40:47;4.38;;;1.00;;
59504;SDS011;45321;53.200;5.814;2023-02-26T05:43:13;4.43;;;0.90;;
59504;SDS011;45321;53.200;5.814;2023-02-26T05:45:39;5.50;;;1.20;;
59504;SDS011;45321;53.200;5.814;2023-02-26T05:48:05;4.30;;;1.10;;
59504;SDS011;45321;53.200;5.814;2023-02-26T05:50:30;4.47;;;1.15;;
59504;SDS011;45321;53.200;5.814;2023-02-26T05:52:56;6.68;;;0.90;;
59504;SDS011;45321;53.200;5.814;2023-02-26T05:55:22;7.03;;;1.15;;
59504;SDS011;45321;53.200;5.814;2023-02-26T05:57:48;5.70;;;1.00;;
59504;SDS011;45321;53.200;5.814;2023-02-26T06:00:14;4.07;;;0.75;;
59504;SDS011;45321;53.200;5.814;2023-02-26T06:02:40;2.55;;;0.85;;
59504;SDS011;45321;53.200;5.814;2023-02-26T06:05:07;9.05;;;0.93;;
59504;SDS011;45321;53.200;5.814;2023-02-26T06:07:33;5.13;;;0.85;;
59504;SDS011;45321;53.200;5.814;2023-02-26T06:09:59;5.72;;;0.80;;
59504;SDS011;45321;53.200;5.814;2023-02-26T06:12:25;1.90;;;0.55;;
59504;SDS011;45321;53.200;5.814;2023-02-26T06:14:50;6.63;;;1.15;;
59504;SDS011;45321;53.200;5.814;2023-02-26T06:17:16;3.20;;;0.68;;
59504;SDS011;45321;53.200;5.814;2023-02-26T06:19:42;6.45;;;1.27;;
59504;SDS011;45321;53.200;5.814;2023-02-26T06:22:08;6.18;;;1.00;;
59504;SDS011;45321;53.200;5.814;2023-02-26T06:24:34;3.65;;;0.80;;
59504;SDS011;45321;53.200;5.814;2023-02-26T06:27:00;5.43;;;1.10;;
59504;SDS011;45321;53.200;5.814;2023-02-26T06:29:26;8.77;;;1.48;;
59504;SDS011;45321;53.200;5.814;2023-02-26T06:31:51;5.50;;;0.93;;
59504;SDS011;45321;53.200;5.814;2023-02-26T06:34:17;7.18;;;1.13;;
59504;SDS011;45321;53.200;5.814;2023-02-26T06:36:43;4.40;;;0.90;;
59504;SDS011;45321;53.200;5.814;2023-02-26T06:39:09;4.35;;;0.75;;
59504;SDS011;45321;53.200;5.814;2023-02-26T06:41:36;7.38;;;0.93;;
59504;SDS011;45321;53.200;5.814;2023-02-26T06:44:02;3.00;;;0.80;;
59504;SDS011;45321;53.200;5.814;2023-02-26T06:46:28;3.17;;;1.00;;
59504;SDS011;45321;53.200;5.814;2023-02-26T06:48:54;3.45;;;1.30;;
59504;SDS011;45321;53.200;5.814;2023-02-26T06:51:20;4.57;;;1.00;;
59504;SDS011;45321;53.200;5.814;2023-02-26T06:53:45;5.18;;;1.20;;
59504;SDS011;45321;53.200;5.814;2023-02-26T06:56:11;6.80;;;1.10;;
59504;SDS011;45321;53.200;5.814;2023-02-26T06:58:37;7.97;;;1.38;;
59504;SDS011;45321;53.200;5.814;2023-02-26T07:01:03;2.85;;;0.80;;
59504;SDS011;45321;53.200;5.814;2023-02-26T07:03:29;2.40;;;1.00;;
59504;SDS011;45321;53.200;5.814;2023-02-26T07:05:55;3.95;;;0.90;;
59504;SDS011;45321;53.200;5.814;2023-02-26T07:08:21;7.82;;;1.00;;
59504;SDS011;45321;53.200;5.814;2023-02-26T07:10:48;12.55;;;1.50;;
59504;SDS011;45321;53.200;5.814;2023-02-26T07:13:14;7.93;;;0.85;;
59504;SDS011;45321;53.200;5.814;2023-02-26T07:15:41;2.90;;;1.00;;
59504;SDS011;45321;53.200;5.814;2023-02-26T07:18:07;5.75;;;1.00;;
59504;SDS011;45321;53.200;5.814;2023-02-26T07:20:33;6.20;;;0.98;;
59504;SDS011;45321;53.200;5.814;2023-02-26T07:22:58;3.58;;;1.00;;
59504;SDS011;45321;53.200;5.814;2023-02-26T07:25:24;7.05;;;1.08;;
59504;SDS011;45321;53.200;5.814;2023-02-26T07:27:50;8.48;;;1.00;;
59504;SDS011;45321;53.200;5.814;2023-02-26T07:30:16;5.85;;;1.63;;
59504;SDS011;45321;53.200;5.814;2023-02-26T07:32:42;2.50;;;0.90;;
59504;SDS011;45321;53.200;5.814;2023-02-26T07:35:08;10.13;;;1.48;;
59504;SDS011;45321;53.200;5.814;2023-02-26T07:37:34;3.90;;;0.93;;
59504;SDS011;45321;53.200;5.814;2023-02-26T07:40:00;6.03;;;1.10;;
59504;SDS011;45321;53.200;5.814;2023-02-26T07:42:26;3.83;;;1.15;;
59504;SDS011;45321;53.200;5.814;2023-02-26T07:44:52;4.78;;;1.08;;
59504;SDS011;45321;53.200;5.814;2023-02-26T07:47:17;6.50;;;1.23;;
59504;SDS011;45321;53.200;5.814;2023-02-26T07:49:43;2.13;;;0.70;;
59504;SDS011;45321;53.200;5.814;2023-02-26T07:52:09;3.75;;;0.90;;
59504;SDS011;45321;53.200;5.814;2023-02-26T07:54:35;5.88;;;1.13;;
59504;SDS011;45321;53.200;5.814;2023-02-26T07:57:01;5.80;;;1.08;;
59504;SDS011;45321;53.200;5.814;2023-02-26T07:59:27;2.90;;;0.95;;
59504;SDS011;45321;53.200;5.814;2023-02-26T08:01:53;5.22;;;1.10;;
59504;SDS011;45321;53.200;5.814;2023-02-26T08:04:20;8.02;;;1.65;;
59504;SDS011;45321;53.200;5.814;2023-02-26T08:06:45;5.35;;;1.13;;
59504;SDS011;45321;53.200;5.814;2023-02-26T08:09:11;3.58;;;0.90;;
59504;SDS011;45321;53.200;5.814;2023-02-26T08:11:37;4.10;;;0.93;;
59504;SDS011;45321;53.200;5.814;2023-02-26T08:14:07;4.35;;;1.08;;
59504;SDS011;45321;53.200;5.814;2023-02-26T08:16:35;4.40;;;1.17;;
59504;SDS011;45321;53.200;5.814;2023-02-26T08:19:00;7.05;;;1.00;;
59504;SDS011;45321;53.200;5.814;2023-02-26T08:21:26;2.70;;;1.00;;
59504;SDS011;45321;53.200;5.814;2023-02-26T08:23:52;3.38;;;0.98;;
59504;SDS011;45321;53.200;5.814;2023-02-26T08:26:18;7.90;;;0.93;;
59504;SDS011;45321;53.200;5.814;2023-02-26T08:28:44;4.03;;;1.10;;
59504;SDS011;45321;53.200;5.814;2023-02-26T08:31:11;7.93;;;1.25;;
59504;SDS011;45321;53.200;5.814;2023-02-26T08:33:38;3.25;;;0.80;;
59504;SDS011;45321;53.200;5.814;2023-02-26T08:36:04;7.30;;;1.10;;
59504;SDS011;45321;53.200;5.814;2023-02-26T08:38:30;5.85;;;0.95;;
59504;SDS011;45321;53.200;5.814;2023-02-26T08:40:56;8.20;;;1.08;;
59504;SDS011;45321;53.200;5.814;2023-02-26T08:43:22;5.15;;;1.00;;
59504;SDS011;45321;53.200;5.814;2023-02-26T08:45:51;3.58;;;1.00;;
59504;SDS011;45321;53.200;5.814;2023-02-26T08:48:18;3.50;;;0.80;;
59504;SDS011;45321;53.200;5.814;2023-02-26T08:50:43;3.35;;;0.90;;
59504;SDS011;45321;53.200;5.814;2023-02-26T08:53:09;4.53;;;1.55;;
59504;SDS011;45321;53.200;5.814;2023-02-26T08:55:35;3.42;;;0.70;;
59504;SDS011;45321;53.200;5.814;2023-02-26T08:58:00;3.35;;;0.80;;
59504;SDS011;45321;53.200;5.814;2023-02-26T09:00:26;9.32;;;0.98;;
59504;SDS011;45321;53.200;5.814;2023-02-26T09:02:52;3.38;;;0.68;;
59504;SDS011;45321;53.200;5.814;2023-02-26T09:05:18;4.63;;;0.80;;
59504;SDS011;45321;53.200;5.814;2023-02-26T09:07:44;5.07;;;0.75;;
59504;SDS011;45321;53.200;5.814;2023-02-26T09:10:10;4.57;;;0.80;;
59504;SDS011;45321;53.200;5.814;2023-02-26T09:12:37;3.72;;;1.10;;
59504;SDS011;45321;53.200;5.814;2023-02-26T09:15:04;4.55;;;0.98;;
59504;SDS011;45321;53.200;5.814;2023-02-26T09:17:31;3.33;;;0.85;;
59504;SDS011;45321;53.200;5.814;2023-02-26T09:19:57;3.95;;;0.80;;
59504;SDS011;45321;53.200;5.814;2023-02-26T09:22:23;5.32;;;0.73;;
59504;SDS011;45321;53.200;5.814;2023-02-26T09:24:49;4.35;;;0.70;;
59504;SDS011;45321;53.200;5.814;2023-02-26T09:27:15;5.05;;;0.57;;
59504;SDS011;45321;53.200;5.814;2023-02-26T09:29:41;4.43;;;1.00;;
59504;SDS011;45321;53.200;5.814;2023-02-26T09:32:07;6.00;;;0.88;;
59504;SDS011;45321;53.200;5.814;2023-02-26T09:34:34;7.05;;;1.40;;
59504;SDS011;45321;53.200;5.814;2023-02-26T09:37:02;3.35;;;0.80;;
59504;SDS011;45321;53.200;5.814;2023-02-26T09:39:32;4.50;;;0.80;;
59504;SDS011;45321;53.200;5.814;2023-02-26T09:41:59;5.68;;;0.60;;
59504;SDS011;45321;53.200;5.814;2023-02-26T09:44:35;6.30;;;0.73;;
59504;SDS011;45321;53.200;5.814;2023-02-26T09:54:47;5.72;;;1.13;;
59504;SDS011;45321;53.200;5.814;2023-02-26T09:57:35;5.10;;;0.68;;
59504;SDS011;45321;53.200;5.814;2023-02-26T10:05:38;6.10;;;0.90;;
59504;SDS011;45321;53.200;5.814;2023-02-26T10:08:07;5.38;;;1.33;;
59504;SDS011;45321;53.200;5.814;2023-02-26T10:13:46;7.95;;;1.85;;
59504;SDS011;45321;53.200;5.814;2023-02-26T10:16:12;6.22;;;1.52;;
59504;SDS011;45321;53.200;5.814;2023-02-26T10:19:16;5.10;;;1.70;;
59504;SDS011;45321;53.200;5.814;2023-02-26T10:24:40;5.80;;;0.77;;
59504;SDS011;45321;53.200;5.814;2023-02-26T10:27:16;4.72;;;0.80;;
59504;SDS011;45321;53.200;5.814;2023-02-26T10:35:08;6.55;;;1.13;;
59504;SDS011;45321;53.200;5.814;2023-02-26T10:40:20;4.28;;;0.90;;
59504;SDS011;45321;53.200;5.814;2023-02-26T10:42:55;5.22;;;1.20;;
59504;SDS011;45321;53.200;5.814;2023-02-26T10:50:53;6.68;;;1.23;;
59504;SDS011;45321;53.200;5.814;2023-02-26T10:53:22;3.88;;;1.25;;
59504;SDS011;45321;53.200;5.814;2023-02-26T10:55:51;6.50;;;1.05;;
59504;SDS011;45321;53.200;5.814;2023-02-26T10:58:37;4.47;;;1.10;;
59504;SDS011;45321;53.200;5.814;2023-02-26T11:01:03;8.07;;;1.70;;
59504;SDS011;45321;53.200;5.814;2023-02-26T11:03:38;8.30;;;1.88;;
59504;SDS011;45321;53.200;5.814;2023-02-26T11:06:06;3.38;;;0.63;;
59504;SDS011;45321;53.200;5.814;2023-02-26T11:08:44;8.27;;;1.83;;
59504;SDS011;45321;53.200;5.814;2023-02-26T11:11:33;4.30;;;0.80;;
59504;SDS011;45321;53.200;5.814;2023-02-26T11:14:00;3.25;;;0.80;;
59504;SDS011;45321;53.200;5.814;2023-02-26T11:16:26;6.10;;;1.45;;
59504;SDS011;45321;53.200;5.814;2023-02-26T11:18:53;8.32;;;3.00;;
59504;SDS011;45321;53.200;5.814;2023-02-26T11:21:24;8.27;;;2.95;;
59504;SDS011;45321;53.200;5.814;2023-02-26T11:24:05;6.72;;;1.35;;
59504;SDS011;45321;53.200;5.814;2023-02-26T11:26:36;5.35;;;0.98;;
59504;SDS011;45321;53.200;5.814;2023-02-26T11:29:03;5.32;;;1.27;;
59504;SDS011;45321;53.200;5.814;2023-02-26T11:31:30;4.80;;;0.85;;
59504;SDS011;45321;53.200;5.814;2023-02-26T11:34:04;8.30;;;0.93;;
59504;SDS011;45321;53.200;5.814;2023-02-26T11:36:36;5.35;;;1.30;;
59504;SDS011;45321;53.200;5.814;2023-02-26T11:39:11;3.70;;;0.80;;
59504;SDS011;45321;53.200;5.814;2023-02-26T11:41:41;2.80;;;0.60;;
59504;SDS011;45321;53.200;5.814;2023-02-26T11:44:11;6.47;;;1.08;;
59504;SDS011;45321;53.200;5.814;2023-02-26T11:46:42;4.03;;;0.98;;
59504;SDS011;45321;53.200;5.814;2023-02-26T11:49:14;3.95;;;0.90;;
59504;SDS011;45321;53.200;5.814;2023-02-26T11:51:44;5.93;;;1.38;;
59504;SDS011;45321;53.200;5.814;2023-02-26T11:54:23;5.60;;;1.10;;
59504;SDS011;45321;53.200;5.814;2023-02-26T11:56:59;5.18;;;1.80;;
59504;SDS011;45321;53.200;5.814;2023-02-26T11:59:26;4.85;;;1.13;;
59504;SDS011;45321;53.200;5.814;2023-02-26T12:01:56;4.95;;;1.10;;
59504;SDS011;45321;53.200;5.814;2023-02-26T12:04:27;3.03;;;0.98;;
59504;SDS011;45321;53.200;5.814;2023-02-26T12:06:55;3.58;;;1.02;;
59504;SDS011;45321;53.200;5.814;2023-02-26T12:09:21;3.88;;;1.30;;
59504;SDS011;45321;53.200;5.814;2023-02-26T12:11:53;4.32;;;1.70;;
59504;SDS011;45321;53.200;5.814;2023-02-26T12:17:34;5.45;;;1.77;;
59504;SDS011;45321;53.200;5.814;2023-02-26T12:30:51;3.83;;;0.80;;
59504;SDS011;45321;53.200;5.814;2023-02-26T12:39:11;3.78;;;1.10;;
59504;SDS011;45321;53.200;5.814;2023-02-26T12:56:28;5.70;;;1.30;;
59504;SDS011;45321;53.200;5.814;2023-02-26T13:12:30;4.88;;;1.10;;
59504;SDS011;45321;53.200;5.814;2023-02-26T13:18:18;4.85;;;1.17;;
59504;SDS011;45321;53.200;5.814;2023-02-26T13:21:07;4.35;;;0.60;;
59504;SDS011;45321;53.200;5.814;2023-02-26T13:31:16;5.13;;;1.08;;
59504;SDS011;45321;53.200;5.814;2023-02-26T13:33:56;4.93;;;1.25;;
59504;SDS011;45321;53.200;5.814;2023-02-26T13:36:25;5.05;;;0.82;;
59504;SDS011;45321;53.200;5.814;2023-02-26T13:41:52;6.18;;;1.45;;
59504;SDS011;45321;53.200;5.814;2023-02-26T13:53:50;3.55;;;0.75;;
59504;SDS011;45321;53.200;5.814;2023-02-26T13:58:48;4.60;;;1.00;;
59504;SDS011;45321;53.200;5.814;2023-02-26T14:01:26;9.40;;;1.15;;
59504;SDS011;45321;53.200;5.814;2023-02-26T14:06:53;2.67;;;0.77;;
59504;SDS011;45321;53.200;5.814;2023-02-26T14:14:31;7.35;;;0.95;;
59504;SDS011;45321;53.200;5.814;2023-02-26T14:22:22;4.18;;;0.80;;
59504;SDS011;45321;53.200;5.814;2023-02-26T14:27:37;4.05;;;0.90;;
59504;SDS011;45321;53.200;5.814;2023-02-26T14:30:15;4.57;;;1.02;;
59504;SDS011;45321;53.200;5.814;2023-02-26T14:35:38;3.85;;;0.98;;
59504;SDS011;45321;53.200;5.814;2023-02-26T14:40:54;5.03;;;0.70;;
59504;SDS011;45321;53.200;5.814;2023-02-26T14:43:49;4.85;;;2.20;;
59504;SDS011;45321;53.200;5.814;2023-02-26T14:46:15;5.15;;;1.90;;
59504;SDS011;45321;53.200;5.814;2023-02-26T14:48:42;3.05;;;1.05;;
59504;SDS011;45321;53.200;5.814;2023-02-26T14:59:50;6.13;;;1.63;;
59504;SDS011;45321;53.200;5.814;2023-02-26T15:13:35;12.85;;;1.40;;
59504;SDS011;45321;53.200;5.814;2023-02-26T15:22:08;3.75;;;1.13;;
59504;SDS011;45321;53.200;5.814;2023-02-26T15:24:47;7.47;;;2.28;;
59504;SDS011;45321;53.200;5.814;2023-02-26T15:27:16;4.70;;;1.30;;
59504;SDS011;45321;53.200;5.814;2023-02-26T15:29:44;5.03;;;1.48;;
59504;SDS011;45321;53.200;5.814;2023-02-26T15:32:13;5.20;;;1.30;;
59504;SDS011;45321;53.200;5.814;2023-02-26T15:34:46;7.53;;;1.30;;
59504;SDS011;45321;53.200;5.814;2023-02-26T15:37:20;5.57;;;1.25;;
59504;SDS011;45321;53.200;5.814;2023-02-26T15:39:50;7.43;;;1.70;;
59504;SDS011;45321;53.200;5.814;2023-02-26T15:42:20;4.38;;;1.02;;
59504;SDS011;45321;53.200;5.814;2023-02-26T15:44:50;5.32;;;1.08;;
59504;SDS011;45321;53.200;5.814;2023-02-26T15:47:17;6.55;;;1.08;;
59504;SDS011;45321;53.200;5.814;2023-02-26T15:49:44;4.50;;;1.00;;
59504;SDS011;45321;53.200;5.814;2023-02-26T15:52:14;5.85;;;0.82;;
59504;SDS011;45321;53.200;5.814;2023-02-26T15:54:50;4.32;;;1.13;;
59504;SDS011;45321;53.200;5.814;2023-02-26T15:57:19;6.53;;;0.90;;
59504;SDS011;45321;53.200;5.814;2023-02-26T15:59:49;2.95;;;1.10;;
59504;SDS011;45321;53.200;5.814;2023-02-26T16:02:21;7.07;;;1.38;;
59504;SDS011;45321;53.200;5.814;2023-02-26T16:04:51;7.35;;;1.52;;
59504;SDS011;45321;53.200;5.814;2023-02-26T16:07:19;6.53;;;1.30;;
59504;SDS011;45321;53.200;5.814;2023-02-26T16:09:46;5.40;;;1.10;;
59504;SDS011;45321;53.200;5.814;2023-02-26T16:12:18;6.45;;;1.10;;
59504;SDS011;45321;53.200;5.814;2023-02-26T16:15:35;9.95;;;1.75;;
59504;SDS011;45321;53.200;5.814;2023-02-26T16:17:41;6.65;;;0.98;;
59504;SDS011;45321;53.200;5.814;2023-02-26T16:20:13;6.70;;;1.65;;
59504;SDS011;45321;53.200;5.814;2023-02-26T16:22:43;9.00;;;1.52;;
59504;SDS011;45321;53.200;5.814;2023-02-26T16:25:32;5.88;;;1.25;;
59504;SDS011;45321;53.200;5.814;2023-02-26T16:28:06;6.85;;;1.20;;
59504;SDS011;45321;53.200;5.814;2023-02-26T16:33:13;6.28;;;1.10;;
59504;SDS011;45321;53.200;5.814;2023-02-26T16:35:42;6.20;;;1.65;;
59504;SDS011;45321;53.200;5.814;2023-02-26T16:38:16;4.53;;;1.30;;
59504;SDS011;45321;53.200;5.814;2023-02-26T16:40:45;7.80;;;2.38;;
59504;SDS011;45321;53.200;5.814;2023-02-26T16:45:48;4.82;;;1.30;;
59504;SDS011;45321;53.200;5.814;2023-02-26T16:51:12;8.88;;;1.35;;
59504;SDS011;45321;53.200;5.814;2023-02-26T16:53:42;6.90;;;1.50;;
59504;SDS011;45321;53.200;5.814;2023-02-26T16:56:14;5.68;;;1.23;;
59504;SDS011;45321;53.200;5.814;2023-02-26T16:58:44;6.25;;;1.27;;
59504;SDS011;45321;53.200;5.814;2023-02-26T17:01:13;8.20;;;1.10;;
59504;SDS011;45321;53.200;5.814;2023-02-26T17:03:44;6.38;;;1.20;;
59504;SDS011;45321;53.200;5.814;2023-02-26T17:06:14;7.28;;;1.30;;
59504;SDS011;45321;53.200;5.814;2023-02-26T17:08:48;4.82;;;1.10;;
59504;SDS011;45321;53.200;5.814;2023-02-26T17:11:37;5.20;;;1.10;;
59504;SDS011;45321;53.200;5.814;2023-02-26T17:14:20;7.65;;;1.60;;
59504;SDS011;45321;53.200;5.814;2023-02-26T17:16:49;6.43;;;2.00;;
59504;SDS011;45321;53.200;5.814;2023-02-26T17:19:16;8.32;;;2.25;;
59504;SDS011;45321;53.200;5.814;2023-02-26T17:21:46;9.93;;;3.58;;
59504;SDS011;45321;53.200;5.814;2023-02-26T17:24:34;9.13;;;3.17;;
59504;SDS011;45321;53.200;5.814;2023-02-26T17:27:05;11.52;;;3.08;;
59504;SDS011;45321;53.200;5.814;2023-02-26T17:29:34;12.73;;;4.22;;
59504;SDS011;45321;53.200;5.814;2023-02-26T17:32:03;8.15;;;4.28;;
59504;SDS011;45321;53.200;5.814;2023-02-26T17:34:30;9.30;;;3.53;;
59504;SDS011;45321;53.200;5.814;2023-02-26T17:36:56;13.43;;;5.20;;
59504;SDS011;45321;53.200;5.814;2023-02-26T17:39:23;14.02;;;4.38;;
59504;SDS011;45321;53.200;5.814;2023-02-26T17:41:50;13.20;;;5.45;;
59504;SDS011;45321;53.200;5.814;2023-02-26T17:44:16;10.48;;;3.92;;
59504;SDS011;45321;53.200;5.814;2023-02-26T17:46:41;17.63;;;7.55;;
59504;SDS011;45321;53.200;5.814;2023-02-26T17:49:09;18.27;;;8.93;;
59504;SDS011;45321;53.200;5.814;2023-02-26T17:51:35;21.27;;;8.32;;
59504;SDS011;45321;53.200;5.814;2023-02-26T17:54:01;17.60;;;8.43;;
59504;SDS011;45321;53.200;5.814;2023-02-26T17:56:29;8.13;;;4.40;;
59504;SDS011;45321;53.200;5.814;2023-02-26T17:58:56;14.57;;;3.30;;
59504;SDS011;45321;53.200;5.814;2023-02-26T18:01:24;9.20;;;3.92;;
59504;SDS011;45321;53.200;5.814;2023-02-26T18:03:53;16.35;;;8.60;;
59504;SDS011;45321;53.200;5.814;2023-02-26T18:06:19;17.85;;;8.82;;
59504;SDS011;45321;53.200;5.814;2023-02-26T18:08:46;12.73;;;5.88;;
59504;SDS011;45321;53.200;5.814;2023-02-26T18:11:13;6.68;;;3.28;;
59504;SDS011;45321;53.200;5.814;2023-02-26T18:13:40;3.97;;;1.73;;
59504;SDS011;45321;53.200;5.814;2023-02-26T18:16:48;4.85;;;2.00;;
59504;SDS011;45321;53.200;5.814;2023-02-26T18:18:58;13.13;;;2.97;;